Hauptseite
METAR-TAF:

METAR-TAF

Flughäfen :

Heeresflugplatz Bückeburg

Bückeburg, Deutschland

Breite: 52-17N, Länge: 009-05E, Höhe: 70 m

Beobachtung

Neuester Wetterbericht von vor 10 Minuten, um 23:20 UTC
Wind 1 kt aus unterschiedlichen Richtungen
Temperatur 18°C
Luftfeuchtigkeit 64%
Luftdruck 1019 hPa
Sichtweite 10 km oder mehr
Leicht bewölkt in der Höhe von 9000 ft

METAR: ETHB 212320Z VRB01KT 9999 FEW090 18/11 Q1019 BLU+

Zeit: 01:30 (23:30 UTC)

Prognose

Neuester Wetterbericht von vor 1 Stunde und 48 Minuten, um 21:42 UTC
Gültige Prognose vom 21 um 20 UTC bis 22 um 05 UTC
Wind 5 kt aus Ost
Sichtweite: 2200 m
Aufgelockert bewölkt in der Höhe von 9000 ft

TAF: ETHB 212142Z 2120/2205 10005KT 9999 NSW SCT090 CANCEL 2200

Wetterbeobachtungen und Prognosen von mehr als 4000 Flughäfen (METAR und TAF Bericht).

Die verfügbaren Stationen werden durch gelbe und rote Markierungen auf der Karte dargestellt.

Führen Sie die Maus auf sie, um den Namen der Station zu sehen.

Darauf klicken, um die Beobachtung von Wetterbeobachtungen und Prognosen zu sehen.

Um die Karte zu ändern : klicken Sie auf den grünen Tasten mit einem schwarzen Kreuz Zum Vergrößern, auf den grünen Button mit einem Gedankenstrich zu verkleinern, oder auf die grünen Pfeile für benachbarte Karten.


METAR-TAF: